sensor_id;sensor_type;location;lat;lon;timestamp;pressure;altitude;pressure_sealevel;temperature;humidity
68807;BME280;55800;54.272;18.558;2023-03-01T00:00:18;102241.47;;;1.54;69.05
68807;BME280;55800;54.272;18.558;2023-03-01T00:03:08;102230.09;;;1.56;69.00
68807;BME280;55800;54.272;18.558;2023-03-01T00:05:43;102238.03;;;1.58;69.09
68807;BME280;55800;54.272;18.558;2023-03-01T00:08:12;102239.84;;;1.59;69.34
68807;BME280;55800;54.272;18.558;2023-03-01T00:10:42;102245.94;;;1.56;69.56
68807;BME280;55800;54.272;18.558;2023-03-01T00:13:11;102252.06;;;1.57;69.51
68807;BME280;55800;54.272;18.558;2023-03-01T00:15:42;102235.38;;;1.56;69.56
68807;BME280;55800;54.272;18.558;2023-03-01T00:18:11;102228.38;;;1.58;69.27
68807;BME280;55800;54.272;18.558;2023-03-01T00:20:40;102223.03;;;1.55;69.42
68807;BME280;55800;54.272;18.558;2023-03-01T00:23:10;102214.34;;;1.59;69.88
68807;BME280;55800;54.272;18.558;2023-03-01T00:25:41;102216.03;;;1.56;69.71
68807;BME280;55800;54.272;18.558;2023-03-01T00:28:11;102209.94;;;1.58;69.69
68807;BME280;55800;54.272;18.558;2023-03-01T00:30:42;102209.88;;;1.55;70.06
68807;BME280;55800;54.272;18.558;2023-03-01T00:33:12;102214.22;;;1.53;70.25
68807;BME280;55800;54.272;18.558;2023-03-01T00:35:41;102215.13;;;1.55;69.82
68807;BME280;55800;54.272;18.558;2023-03-01T00:38:10;102219.59;;;1.59;69.72
68807;BME280;55800;54.272;18.558;2023-03-01T00:40:40;102219.66;;;1.61;70.02
68807;BME280;55800;54.272;18.558;2023-03-01T00:43:09;102214.25;;;1.55;70.49
68807;BME280;55800;54.272;18.558;2023-03-01T00:45:40;102214.25;;;1.55;70.07
68807;BME280;55800;54.272;18.558;2023-03-01T00:48:09;102209.03;;;1.56;69.74
68807;BME280;55800;54.272;18.558;2023-03-01T00:50:39;102208.22;;;1.61;69.89
68807;BME280;55800;54.272;18.558;2023-03-01T00:53:08;102193.31;;;1.63;70.08
68807;BME280;55800;54.272;18.558;2023-03-01T00:55:37;102197.69;;;1.61;69.95
68807;BME280;55800;54.272;18.558;2023-03-01T00:58:07;102196.66;;;1.54;70.22
68807;BME280;55800;54.272;18.558;2023-03-01T01:00:36;102187.88;;;1.55;70.58
68807;BME280;55800;54.272;18.558;2023-03-01T01:03:07;102195.88;;;1.59;70.19
68807;BME280;55800;54.272;18.558;2023-03-01T01:05:36;102204.63;;;1.57;70.17
68807;BME280;55800;54.272;18.558;2023-03-01T01:08:06;102196.72;;;1.57;70.65
68807;BME280;55800;54.272;18.558;2023-03-01T01:10:36;102205.47;;;1.54;70.25
68807;BME280;55800;54.272;18.558;2023-03-01T01:13:05;102207.31;;;1.58;70.17
68807;BME280;55800;54.272;18.558;2023-03-01T01:15:35;102215.22;;;1.60;69.93
68807;BME280;55800;54.272;18.558;2023-03-01T01:18:05;102216.13;;;1.61;70.59
68807;BME280;55800;54.272;18.558;2023-03-01T01:20:37;102209.06;;;1.59;69.77
68807;BME280;55800;54.272;18.558;2023-03-01T01:23:06;102193.25;;;1.59;70.58
68807;BME280;55800;54.272;18.558;2023-03-01T01:25:36;102187.97;;;1.59;70.47
68807;BME280;55800;54.272;18.558;2023-03-01T01:28:06;102195.88;;;1.59;70.41
68807;BME280;55800;54.272;18.558;2023-03-01T01:30:35;102193.31;;;1.63;70.53
68807;BME280;55800;54.272;18.558;2023-03-01T01:33:04;102196.78;;;1.62;70.76
68807;BME280;55800;54.272;18.558;2023-03-01T01:35:33;102205.63;;;1.64;70.07
68807;BME280;55800;54.272;18.558;2023-03-01T01:38:04;102208.25;;;1.64;71.05
68807;BME280;55800;54.272;18.558;2023-03-01T01:40:34;102201.25;;;1.64;70.47
68807;BME280;55800;54.272;18.558;2023-03-01T01:43:04;102202.97;;;1.62;70.62
68807;BME280;55800;54.272;18.558;2023-03-01T01:45:35;102189.84;;;1.65;70.71
68807;BME280;55800;54.272;18.558;2023-03-01T01:48:10;102188.09;;;1.66;70.60
68807;BME280;55800;54.272;18.558;2023-03-01T01:50:41;102178.41;;;1.65;71.08
68807;BME280;55800;54.272;18.558;2023-03-01T01:53:16;102172.34;;;1.69;71.03
68807;BME280;55800;54.272;18.558;2023-03-01T01:55:51;102160.88;;;1.65;70.89
68807;BME280;55800;54.272;18.558;2023-03-01T01:58:22;102160.81;;;1.64;71.04
68807;BME280;55800;54.272;18.558;2023-03-01T02:00:53;102158.19;;;1.64;70.76
68807;BME280;55800;54.272;18.558;2023-03-01T02:03:26;102158.19;;;1.64;70.70
68807;BME280;55800;54.272;18.558;2023-03-01T02:06:00;102159.91;;;1.62;71.19
68807;BME280;55800;54.272;18.558;2023-03-01T02:08:36;102156.41;;;1.63;71.12
68807;BME280;55800;54.272;18.558;2023-03-01T02:11:07;102152.88;;;1.62;70.70
68807;BME280;55800;54.272;18.558;2023-03-01T02:13:38;102158.13;;;1.61;71.02
68807;BME280;55800;54.272;18.558;2023-03-01T02:16:10;102159.84;;;1.58;71.21
68807;BME280;55800;54.272;18.558;2023-03-01T02:18:42;102151.97;;;1.60;70.85
68807;BME280;55800;54.272;18.558;2023-03-01T02:21:23;102151.06;;;1.59;70.85
68807;BME280;55800;54.272;18.558;2023-03-01T02:24:00;102145.69;;;1.53;71.48
68807;BME280;55800;54.272;18.558;2023-03-01T02:26:39;102148.41;;;1.56;71.16
68807;BME280;55800;54.272;18.558;2023-03-01T02:29:11;102151.84;;;1.52;71.26
68807;BME280;55800;54.272;18.558;2023-03-01T02:31:40;102156.31;;;1.56;71.31
68807;BME280;55800;54.272;18.558;2023-03-01T02:34:15;102154.50;;;1.55;71.50
68807;BME280;55800;54.272;18.558;2023-03-01T02:36:47;102165.06;;;1.55;71.48
68807;BME280;55800;54.272;18.558;2023-03-01T02:39:21;102159.75;;;1.52;71.62
68807;BME280;55800;54.272;18.558;2023-03-01T02:41:53;102162.31;;;1.51;71.71
68807;BME280;55800;54.272;18.558;2023-03-01T02:44:24;102150.88;;;1.49;71.78
68807;BME280;55800;54.272;18.558;2023-03-01T02:46:56;102151.75;;;1.49;71.88
68807;BME280;55800;54.272;18.558;2023-03-01T02:49:28;102145.66;;;1.50;71.80
68807;BME280;55800;54.272;18.558;2023-03-01T02:52:16;102147.34;;;1.48;72.74
68807;BME280;55800;54.272;18.558;2023-03-01T02:54:52;102153.47;;;1.46;72.52
68807;BME280;55800;54.272;18.558;2023-03-01T02:57:26;102145.56;;;1.47;72.61
68807;BME280;55800;54.272;18.558;2023-03-01T03:00:02;102142.88;;;1.44;72.39
68807;BME280;55800;54.272;18.558;2023-03-01T03:02:36;102145.56;;;1.47;72.36
68807;BME280;55800;54.272;18.558;2023-03-01T03:05:12;102146.41;;;1.46;72.78
68807;BME280;55800;54.272;18.558;2023-03-01T03:07:44;102128.97;;;1.51;72.67
68807;BME280;55800;54.272;18.558;2023-03-01T03:10:16;102124.50;;;1.47;72.97
68807;BME280;55800;54.272;18.558;2023-03-01T03:12:50;102120.13;;;1.48;73.18
68807;BME280;55800;54.272;18.558;2023-03-01T03:15:22;102119.22;;;1.47;72.79
68807;BME280;55800;54.272;18.558;2023-03-01T03:17:53;102113.06;;;1.47;73.49
68807;BME280;55800;54.272;18.558;2023-03-01T03:20:25;102112.16;;;1.46;73.30
68807;BME280;55800;54.272;18.558;2023-03-01T03:22:56;102110.41;;;1.45;73.31
68807;BME280;55800;54.272;18.558;2023-03-01T03:25:28;102113.06;;;1.47;72.64
68807;BME280;55800;54.272;18.558;2023-03-01T03:27:58;102115.72;;;1.48;73.63
68807;BME280;55800;54.272;18.558;2023-03-01T03:33:48;102106.06;;;1.49;73.57
68807;BME280;55800;54.272;18.558;2023-03-01T03:36:18;102109.56;;;1.48;73.43
68807;BME280;55800;54.272;18.558;2023-03-01T03:38:48;102106.88;;;1.46;73.00
68807;BME280;55800;54.272;18.558;2023-03-01T03:41:18;102109.59;;;1.49;73.50
68807;BME280;55800;54.272;18.558;2023-03-01T03:43:47;102098.22;;;1.52;73.71
68807;BME280;55800;54.272;18.558;2023-03-01T03:46:17;102098.13;;;1.47;73.95
68807;BME280;55800;54.272;18.558;2023-03-01T03:48:47;102101.63;;;1.46;74.40
68807;BME280;55800;54.272;18.558;2023-03-01T03:51:18;102097.25;;;1.48;73.73
68807;BME280;55800;54.272;18.558;2023-03-01T03:53:50;102090.25;;;1.49;73.91
68807;BME280;55800;54.272;18.558;2023-03-01T03:56:20;102095.50;;;1.47;74.21
68807;BME280;55800;54.272;18.558;2023-03-01T03:58:49;102091.97;;;1.47;74.12
68807;BME280;55800;54.272;18.558;2023-03-01T04:01:18;102088.50;;;1.48;74.48
68807;BME280;55800;54.272;18.558;2023-03-01T04:03:49;102095.53;;;1.49;74.12
68807;BME280;55800;54.272;18.558;2023-03-01T04:06:22;102087.59;;;1.47;74.47
68807;BME280;55800;54.272;18.558;2023-03-01T04:08:51;102088.50;;;1.48;73.99
68807;BME280;55800;54.272;18.558;2023-03-01T04:11:27;102086.72;;;1.48;73.29
68807;BME280;55800;54.272;18.558;2023-03-01T04:13:57;102078.78;;;1.45;74.34
68807;BME280;55800;54.272;18.558;2023-03-01T04:16:28;102078.78;;;1.45;74.50
68807;BME280;55800;54.272;18.558;2023-03-01T04:18:59;102078.72;;;1.42;74.27
68807;BME280;55800;54.272;18.558;2023-03-01T04:21:28;102078.78;;;1.45;74.13
68807;BME280;55800;54.272;18.558;2023-03-01T04:23:57;102078.72;;;1.42;74.73
68807;BME280;55800;54.272;18.558;2023-03-01T04:26:27;102077.84;;;1.42;74.54
68807;BME280;55800;54.272;18.558;2023-03-01T04:28:57;102073.44;;;1.42;74.80
68807;BME280;55800;54.272;18.558;2023-03-01T04:31:26;102084.88;;;1.44;74.67
68807;BME280;55800;54.272;18.558;2023-03-01T04:33:57;102080.44;;;1.40;74.87
68807;BME280;55800;54.272;18.558;2023-03-01T04:36:29;102087.50;;;1.41;74.97
68807;BME280;55800;54.272;18.558;2023-03-01T04:38:58;102079.59;;;1.41;75.14
68807;BME280;55800;54.272;18.558;2023-03-01T04:41:28;102082.22;;;1.41;74.76
68807;BME280;55800;54.272;18.558;2023-03-01T04:43:57;102078.66;;;1.39;75.20
68807;BME280;55800;54.272;18.558;2023-03-01T04:46:28;102082.22;;;1.41;75.18
68807;BME280;55800;54.272;18.558;2023-03-01T04:48:59;102078.66;;;1.39;75.28
68807;BME280;55800;54.272;18.558;2023-03-01T04:51:28;102081.31;;;1.41;75.32
68807;BME280;55800;54.272;18.558;2023-03-01T04:53:59;102081.25;;;1.38;75.36
68807;BME280;55800;54.272;18.558;2023-03-01T04:56:29;102079.63;;;1.44;75.12
68807;BME280;55800;54.272;18.558;2023-03-01T04:58:59;102076.13;;;1.44;75.14
68807;BME280;55800;54.272;18.558;2023-03-01T05:01:28;102082.22;;;1.41;75.44
68807;BME280;55800;54.272;18.558;2023-03-01T05:04:00;102078.66;;;1.39;75.25
68807;BME280;55800;54.272;18.558;2023-03-01T05:06:33;102077.78;;;1.40;75.06
68807;BME280;55800;54.272;18.558;2023-03-01T05:09:02;102079.50;;;1.37;75.15
68807;BME280;55800;54.272;18.558;2023-03-01T05:11:32;102075.88;;;1.32;74.91
68807;BME280;55800;54.272;18.558;2023-03-01T05:14:05;102071.56;;;1.35;75.32
68807;BME280;55800;54.272;18.558;2023-03-01T05:16:35;102075.13;;;1.37;75.07
68807;BME280;55800;54.272;18.558;2023-03-01T05:19:06;102074.28;;;1.40;75.17
68807;BME280;55800;54.272;18.558;2023-03-01T05:21:43;102073.31;;;1.36;75.25
68807;BME280;55800;54.272;18.558;2023-03-01T05:24:33;102079.41;;;1.32;75.45
68807;BME280;55800;54.272;18.558;2023-03-01T05:27:03;102075.06;;;1.34;75.65
68807;BME280;55800;54.272;18.558;2023-03-01T05:29:34;102066.22;;;1.31;75.40
68807;BME280;55800;54.272;18.558;2023-03-01T05:32:04;102068.03;;;1.33;75.62
68807;BME280;55800;54.272;18.558;2023-03-01T05:34:35;102073.22;;;1.30;75.31
68807;BME280;55800;54.272;18.558;2023-03-01T05:37:06;102069.59;;;1.25;75.36
68807;BME280;55800;54.272;18.558;2023-03-01T05:39:36;102068.84;;;1.31;75.26
68807;BME280;55800;54.272;18.558;2023-03-01T05:42:05;102070.59;;;1.30;75.57
68807;BME280;55800;54.272;18.558;2023-03-01T05:44:36;102070.50;;;1.27;75.46
68807;BME280;55800;54.272;18.558;2023-03-01T05:47:06;102074.94;;;1.28;75.09
68807;BME280;55800;54.272;18.558;2023-03-01T05:49:36;102063.50;;;1.28;75.72
68807;BME280;55800;54.272;18.558;2023-03-01T05:52:07;102064.41;;;1.28;75.17
68807;BME280;55800;54.272;18.558;2023-03-01T05:54:37;102063.47;;;1.25;75.41
68807;BME280;55800;54.272;18.558;2023-03-01T05:57:06;102055.59;;;1.26;76.00
68807;BME280;55800;54.272;18.558;2023-03-01T05:59:35;102059.03;;;1.24;75.05
68807;BME280;55800;54.272;18.558;2023-03-01T06:02:05;102065.22;;;1.26;75.60
68807;BME280;55800;54.272;18.558;2023-03-01T06:04:35;102066.97;;;1.25;75.88
68807;BME280;55800;54.272;18.558;2023-03-01T06:07:05;102059.03;;;1.22;76.00
68807;BME280;55800;54.272;18.558;2023-03-01T06:09:34;102055.59;;;1.28;75.35
68807;BME280;55800;54.272;18.558;2023-03-01T06:12:04;102071.47;;;1.29;75.84
68807;BME280;55800;54.272;18.558;2023-03-01T06:14:34;102069.66;;;1.28;76.06
68807;BME280;55800;54.272;18.558;2023-03-01T06:17:03;102072.28;;;1.27;75.44
68807;BME280;55800;54.272;18.558;2023-03-01T06:19:32;102070.56;;;1.29;75.65
68807;BME280;55800;54.272;18.558;2023-03-01T06:22:03;102082.00;;;1.29;76.10
68807;BME280;55800;54.272;18.558;2023-03-01T06:24:33;102075.03;;;1.33;76.25
68807;BME280;55800;54.272;18.558;2023-03-01T06:27:03;102076.78;;;1.32;76.36
68807;BME280;55800;54.272;18.558;2023-03-01T06:29:32;102079.41;;;1.32;76.35
68807;BME280;55800;54.272;18.558;2023-03-01T06:32:02;102082.97;;;1.36;76.00
68807;BME280;55800;54.272;18.558;2023-03-01T06:34:31;102086.59;;;1.41;76.31
68807;BME280;55800;54.272;18.558;2023-03-01T06:37:02;102086.63;;;1.42;76.49
68807;BME280;55800;54.272;18.558;2023-03-01T06:39:33;102085.78;;;1.43;76.86
68807;BME280;55800;54.272;18.558;2023-03-01T06:42:02;102089.34;;;1.48;76.51
68807;BME280;55800;54.272;18.558;2023-03-01T06:44:32;102088.50;;;1.48;76.70
68807;BME280;55800;54.272;18.558;2023-03-01T06:47:01;102090.31;;;1.50;76.73
68807;BME280;55800;54.272;18.558;2023-03-01T06:49:31;102081.59;;;1.56;77.01
68807;BME280;55800;54.272;18.558;2023-03-01T06:52:00;102086.97;;;1.62;76.73
68807;BME280;55800;54.272;18.558;2023-03-01T06:54:30;102091.44;;;1.65;76.43
68807;BME280;55800;54.272;18.558;2023-03-01T06:57:00;102102.97;;;1.71;76.41
68807;BME280;55800;54.272;18.558;2023-03-01T06:59:29;102099.53;;;1.75;76.27
68807;BME280;55800;54.272;18.558;2023-03-01T07:01:59;102099.47;;;1.72;76.52
68807;BME280;55800;54.272;18.558;2023-03-01T07:04:28;102097.72;;;1.73;76.63
68807;BME280;55800;54.272;18.558;2023-03-01T07:06:58;102099.53;;;1.75;76.76
68807;BME280;55800;54.272;18.558;2023-03-01T07:09:29;102105.78;;;1.82;75.82
68807;BME280;55800;54.272;18.558;2023-03-01T07:11:59;102098.78;;;1.82;76.14
68807;BME280;55800;54.272;18.558;2023-03-01T07:14:29;102101.44;;;1.84;76.14
68807;BME280;55800;54.272;18.558;2023-03-01T07:16:58;102102.31;;;1.84;76.03
68807;BME280;55800;54.272;18.558;2023-03-01T07:19:27;102097.97;;;1.86;76.15
68807;BME280;55800;54.272;18.558;2023-03-01T07:21:57;102105.91;;;1.89;76.06
68807;BME280;55800;54.272;18.558;2023-03-01T07:24:26;102109.50;;;1.93;76.05
68807;BME280;55800;54.272;18.558;2023-03-01T07:26:57;102111.25;;;1.94;76.17
68807;BME280;55800;54.272;18.558;2023-03-01T07:29:26;102112.19;;;1.97;76.32
68807;BME280;55800;54.272;18.558;2023-03-01T07:31:56;102108.78;;;2.01;76.12
68807;BME280;55800;54.272;18.558;2023-03-01T07:34:26;102104.44;;;2.05;76.12
68807;BME280;55800;54.272;18.558;2023-03-01T07:36:55;102120.25;;;2.05;76.33
68807;BME280;55800;54.272;18.558;2023-03-01T07:39:24;102114.16;;;2.07;76.30
68807;BME280;55800;54.272;18.558;2023-03-01T07:41:54;102111.53;;;2.10;76.10
68807;BME280;55800;54.272;18.558;2023-03-01T07:44:25;102120.41;;;2.14;76.24
68807;BME280;55800;54.272;18.558;2023-03-01T07:46:54;102117.78;;;2.14;76.17
68807;BME280;55800;54.272;18.558;2023-03-01T07:49:27;102116.03;;;2.16;76.19
68807;BME280;55800;54.272;18.558;2023-03-01T07:51:56;102125.78;;;2.20;76.24
68807;BME280;55800;54.272;18.558;2023-03-01T07:54:26;102128.44;;;2.23;76.23
68807;BME280;55800;54.272;18.558;2023-03-01T07:56:56;102121.41;;;2.22;76.25
68807;BME280;55800;54.272;18.558;2023-03-01T07:59:27;102118.81;;;2.25;76.58
68807;BME280;55800;54.272;18.558;2023-03-01T08:01:58;102120.69;;;2.32;76.30
68807;BME280;55800;54.272;18.558;2023-03-01T08:04:27;102115.47;;;2.36;76.17
68807;BME280;55800;54.272;18.558;2023-03-01T08:06:57;102108.53;;;2.42;76.00
68807;BME280;55800;54.272;18.558;2023-03-01T08:09:26;102099.75;;;2.44;76.03
68807;BME280;55800;54.272;18.558;2023-03-01T08:11:57;102098.06;;;2.49;76.04
68807;BME280;55800;54.272;18.558;2023-03-01T08:14:29;102094.63;;;2.55;75.71
68807;BME280;55800;54.272;18.558;2023-03-01T08:16:59;102083.28;;;2.60;75.92
68807;BME280;55800;54.272;18.558;2023-03-01T08:19:31;102083.34;;;2.66;75.52
68807;BME280;55800;54.272;18.558;2023-03-01T08:22:02;102090.50;;;2.73;75.42
68807;BME280;55800;54.272;18.558;2023-03-01T08:24:31;102095.88;;;2.81;75.21
68807;BME280;55800;54.272;18.558;2023-03-01T08:27:00;102075.69;;;2.86;75.42
68807;BME280;55800;54.272;18.558;2023-03-01T08:29:33;102084.59;;;2.92;74.85
68807;BME280;55800;54.272;18.558;2023-03-01T08:32:03;102090.81;;;2.97;75.04
68807;BME280;55800;54.272;18.558;2023-03-01T08:34:34;102097.06;;;3.05;75.02
68807;BME280;55800;54.272;18.558;2023-03-01T08:37:04;102093.63;;;3.11;74.98
68807;BME280;55800;54.272;18.558;2023-03-01T08:39:33;102098.97;;;3.18;74.89
68807;BME280;55800;54.272;18.558;2023-03-01T08:42:03;102091.13;;;3.23;74.73
68807;BME280;55800;54.272;18.558;2023-03-01T08:44:34;102090.34;;;3.33;74.65
68807;BME280;55800;54.272;18.558;2023-03-01T08:47:03;102091.34;;;3.41;74.50
68807;BME280;55800;54.272;18.558;2023-03-01T08:49:32;102097.59;;;3.51;74.18
68807;BME280;55800;54.272;18.558;2023-03-01T08:52:02;102090.63;;;3.59;74.22
68807;BME280;55800;54.272;18.558;2023-03-01T08:54:31;102078.34;;;3.64;74.11
68807;BME280;55800;54.272;18.558;2023-03-01T08:57:02;102081.94;;;3.72;74.04
68807;BME280;55800;54.272;18.558;2023-03-01T08:59:33;102077.59;;;3.80;73.90
68807;BME280;55800;54.272;18.558;2023-03-01T09:02:08;102077.63;;;3.84;73.96
68807;BME280;55800;54.272;18.558;2023-03-01T09:04:41;102081.25;;;3.95;73.50
68807;BME280;55800;54.272;18.558;2023-03-01T09:07:11;102083.06;;;4.00;73.46
68807;BME280;55800;54.272;18.558;2023-03-01T09:09:41;102088.38;;;4.06;73.29
68807;BME280;55800;54.272;18.558;2023-03-01T09:12:10;102088.44;;;4.09;73.08
68807;BME280;55800;54.272;18.558;2023-03-01T09:14:41;102089.38;;;4.17;73.13
68807;BME280;55800;54.272;18.558;2023-03-01T09:17:11;102088.56;;;4.24;73.19
68807;BME280;55800;54.272;18.558;2023-03-01T09:19:40;102094.78;;;4.33;72.97
68807;BME280;55800;54.272;18.558;2023-03-01T09:22:09;102101.91;;;4.40;72.92
68807;BME280;55800;54.272;18.558;2023-03-01T09:24:38;102093.09;;;4.46;72.49
68807;BME280;55800;54.272;18.558;2023-03-01T09:27:08;102081.69;;;4.51;72.66
68807;BME280;55800;54.272;18.558;2023-03-01T09:29:39;102087.91;;;4.59;72.48
68807;BME280;55800;54.272;18.558;2023-03-01T09:32:09;102089.72;;;4.68;72.32
68807;BME280;55800;54.272;18.558;2023-03-01T09:34:39;102086.19;;;4.75;72.15
68807;BME280;55800;54.272;18.558;2023-03-01T09:37:22;102085.38;;;4.81;72.35
68807;BME280;55800;54.272;18.558;2023-03-01T09:39:51;102083.63;;;4.90;72.12
68807;BME280;55800;54.272;18.558;2023-03-01T09:42:21;102092.50;;;4.97;71.95
68807;BME280;55800;54.272;18.558;2023-03-01T09:44:54;102094.31;;;5.04;72.09
68807;BME280;55800;54.272;18.558;2023-03-01T09:47:27;102091.66;;;5.11;71.70
68807;BME280;55800;54.272;18.558;2023-03-01T09:50:04;102082.88;;;5.15;71.22
68807;BME280;55800;54.272;18.558;2023-03-01T09:52:41;102084.66;;;5.21;71.06
68807;BME280;55800;54.272;18.558;2023-03-01T09:55:13;102076.69;;;5.24;71.33
68807;BME280;55800;54.272;18.558;2023-03-01T09:57:50;102073.19;;;5.31;71.04
68807;BME280;55800;54.272;18.558;2023-03-01T10:00:30;102074.09;;;5.36;70.90
68807;BME280;55800;54.272;18.558;2023-03-01T10:03:08;102080.28;;;5.41;70.78
68807;BME280;55800;54.272;18.558;2023-03-01T10:05:47;102073.22;;;5.47;70.65
68807;BME280;55800;54.272;18.558;2023-03-01T10:08:31;102089.13;;;5.47;70.62
68807;BME280;55800;54.272;18.558;2023-03-01T10:11:04;102090.03;;;5.54;70.55
68807;BME280;55800;54.272;18.558;2023-03-01T10:13:47;102096.25;;;5.59;70.46
68807;BME280;55800;54.272;18.558;2023-03-01T10:16:26;102102.44;;;5.67;70.33
68807;BME280;55800;54.272;18.558;2023-03-01T10:19:00;102091.84;;;5.70;70.44
68807;BME280;55800;54.272;18.558;2023-03-01T10:21:32;102092.72;;;5.74;70.28
68807;BME280;55800;54.272;18.558;2023-03-01T10:24:12;102096.28;;;5.80;70.44
68807;BME280;55800;54.272;18.558;2023-03-01T10:26:48;102088.34;;;5.86;70.29
68807;BME280;55800;54.272;18.558;2023-03-01T10:29:25;102089.22;;;5.94;70.19
68807;BME280;55800;54.272;18.558;2023-03-01T10:31:57;102082.16;;;5.98;70.31
68807;BME280;55800;54.272;18.558;2023-03-01T10:34:30;102090.13;;;6.05;70.07
68807;BME280;55800;54.272;18.558;2023-03-01T10:37:09;102088.34;;;6.12;69.84
68807;BME280;55800;54.272;18.558;2023-03-01T10:39:55;102095.41;;;6.17;69.98
68807;BME280;55800;54.272;18.558;2023-03-01T10:42:28;102087.47;;;6.20;69.82
68807;BME280;55800;54.272;18.558;2023-03-01T10:44:58;102090.09;;;6.26;69.86
68807;BME280;55800;54.272;18.558;2023-03-01T10:47:44;102087.44;;;6.28;69.41
68807;BME280;55800;54.272;18.558;2023-03-01T10:50:22;102084.78;;;6.32;69.39
68807;BME280;55800;54.272;18.558;2023-03-01T10:52:59;102085.69;;;6.36;69.42
68807;BME280;55800;54.272;18.558;2023-03-01T10:55:33;102089.22;;;6.40;68.98
68807;BME280;55800;54.272;18.558;2023-03-01T10:58:09;102075.03;;;6.42;69.70
68807;BME280;55800;54.272;18.558;2023-03-01T11:00:48;102080.34;;;6.45;69.08
68807;BME280;55800;54.272;18.558;2023-03-01T11:03:23;102077.69;;;6.48;69.26
68807;BME280;55800;54.272;18.558;2023-03-01T11:06:01;102079.44;;;6.49;69.03
68807;BME280;55800;54.272;18.558;2023-03-01T11:08:34;102081.22;;;6.50;68.60
68807;BME280;55800;54.272;18.558;2023-03-01T11:11:14;102080.34;;;6.48;68.60
68807;BME280;55800;54.272;18.558;2023-03-01T11:13:53;102074.16;;;6.51;68.69
68807;BME280;55800;54.272;18.558;2023-03-01T11:16:32;102082.13;;;6.55;69.41
68807;BME280;55800;54.272;18.558;2023-03-01T11:19:18;102075.03;;;6.53;68.73
68807;BME280;55800;54.272;18.558;2023-03-01T11:21:56;102078.56;;;6.59;68.71
68807;BME280;55800;54.272;18.558;2023-03-01T11:24:33;102075.88;;;6.62;69.07
68807;BME280;55800;54.272;18.558;2023-03-01T11:27:13;102067.00;;;6.65;68.86
68807;BME280;55800;54.272;18.558;2023-03-01T11:29:46;102073.22;;;6.67;68.52
68807;BME280;55800;54.272;18.558;2023-03-01T11:32:20;102060.78;;;6.69;68.75
68807;BME280;55800;54.272;18.558;2023-03-01T11:34:58;102069.63;;;6.72;68.94
68807;BME280;55800;54.272;18.558;2023-03-01T11:37:40;102055.50;;;6.72;68.92
68807;BME280;55800;54.272;18.558;2023-03-01T11:40:16;102047.47;;;6.75;68.39
68807;BME280;55800;54.272;18.558;2023-03-01T11:43:04;102056.34;;;6.77;68.07
68807;BME280;55800;54.272;18.558;2023-03-01T11:45:44;102049.28;;;6.74;68.13
68807;BME280;55800;54.272;18.558;2023-03-01T11:48:47;102039.53;;;6.73;68.14
68807;BME280;55800;54.272;18.558;2023-03-01T11:51:31;102042.16;;;6.75;68.02
68807;BME280;55800;54.272;18.558;2023-03-01T11:54:13;102040.38;;;6.77;68.08
68807;BME280;55800;54.272;18.558;2023-03-01T11:56:52;102043.94;;;6.76;67.95
68807;BME280;55800;54.272;18.558;2023-03-01T11:59:37;102056.38;;;6.74;67.77
68807;BME280;55800;54.272;18.558;2023-03-01T12:02:27;102051.03;;;6.74;67.92
68807;BME280;55800;54.272;18.558;2023-03-01T12:05:46;102051.03;;;6.74;67.72
68807;BME280;55800;54.272;18.558;2023-03-01T12:08:24;102047.47;;;6.78;68.14
68807;BME280;55800;54.272;18.558;2023-03-01T12:11:07;102050.13;;;6.79;67.80
68807;BME280;55800;54.272;18.558;2023-03-01T12:13:55;102056.34;;;6.80;67.83
68807;BME280;55800;54.272;18.558;2023-03-01T12:16:35;102049.22;;;6.79;67.73
68807;BME280;55800;54.272;18.558;2023-03-01T12:19:23;102045.69;;;6.80;67.72
68807;BME280;55800;54.272;18.558;2023-03-01T12:22:09;102050.13;;;6.81;68.09
68807;BME280;55800;54.272;18.558;2023-03-01T12:25:06;102043.91;;;6.83;67.72
68807;BME280;55800;54.272;18.558;2023-03-01T12:27:56;102043.91;;;6.82;67.67
68807;BME280;55800;54.272;18.558;2023-03-01T12:30:39;102043.94;;;6.85;67.76
68807;BME280;55800;54.272;18.558;2023-03-01T12:33:20;102046.56;;;6.83;67.59
68807;BME280;55800;54.272;18.558;2023-03-01T12:36:11;102045.66;;;6.83;67.59
68807;BME280;55800;54.272;18.558;2023-03-01T12:38:49;102041.25;;;6.85;67.88
68807;BME280;55800;54.272;18.558;2023-03-01T12:41:36;102038.56;;;6.92;67.97
68807;BME280;55800;54.272;18.558;2023-03-01T12:44:30;102032.34;;;6.92;67.86
68807;BME280;55800;54.272;18.558;2023-03-01T12:47:29;102032.34;;;6.95;67.67
68807;BME280;55800;54.272;18.558;2023-03-01T12:50:03;102031.44;;;6.99;67.56
68807;BME280;55800;54.272;18.558;2023-03-01T12:52:39;102032.28;;;7.02;67.65
68807;BME280;55800;54.272;18.558;2023-03-01T12:55:31;102038.50;;;7.04;67.84
68807;BME280;55800;54.272;18.558;2023-03-01T12:58:11;102025.19;;;7.09;67.58
68807;BME280;55800;54.272;18.558;2023-03-01T13:00:50;102032.25;;;7.13;67.21
68807;BME280;55800;54.272;18.558;2023-03-01T13:03:29;102033.13;;;7.15;67.94
68807;BME280;55800;54.272;18.558;2023-03-01T13:06:07;102031.38;;;7.11;67.72
68807;BME280;55800;54.272;18.558;2023-03-01T13:08:42;102024.25;;;7.16;67.52
68807;BME280;55800;54.272;18.558;2023-03-01T13:11:18;102026.88;;;7.25;67.62
68807;BME280;55800;54.272;18.558;2023-03-01T13:13:50;102026.88;;;7.22;68.36
68807;BME280;55800;54.272;18.558;2023-03-01T13:16:39;102022.44;;;7.24;68.19
68807;BME280;55800;54.272;18.558;2023-03-01T13:19:14;102021.53;;;7.27;67.44
68807;BME280;55800;54.272;18.558;2023-03-01T13:21:46;102015.28;;;7.32;67.44
68807;BME280;55800;54.272;18.558;2023-03-01T13:24:26;102017.91;;;7.37;66.70